createdAt,value
2023-03-02T00:01:45.931Z,83.03
2023-03-02T00:04:17.600Z,76.37
2023-03-02T00:06:44.495Z,77.20
2023-03-02T00:09:11.679Z,78.77
2023-03-02T00:11:39.204Z,70.30
2023-03-02T00:14:06.934Z,78.70
2023-03-02T00:16:35.196Z,76.87
2023-03-02T00:19:03.337Z,91.10
2023-03-02T00:21:31.763Z,79.33
2023-03-02T00:23:58.851Z,78.00
2023-03-02T00:26:26.907Z,71.43
2023-03-02T00:28:53.826Z,84.10
2023-03-02T00:31:22.839Z,80.53
2023-03-02T00:33:54.250Z,74.17
2023-03-02T00:36:22.716Z,77.37
2023-03-02T00:38:52.072Z,81.07
2023-03-02T00:41:23.258Z,71.53
2023-03-02T00:43:51.210Z,78.50
2023-03-02T00:46:22.461Z,72.60
2023-03-02T00:48:50.091Z,72.77
2023-03-02T00:51:17.675Z,69.33
2023-03-02T00:53:45.030Z,77.83
2023-03-02T00:56:13.466Z,74.30
2023-03-02T00:58:40.579Z,76.53
2023-03-02T01:01:10.337Z,78.77
2023-03-02T01:03:37.984Z,75.80
2023-03-02T01:06:06.051Z,69.73
2023-03-02T01:08:32.924Z,74.53
2023-03-02T01:11:01.478Z,73.17
2023-03-02T01:13:28.835Z,76.87
2023-03-02T01:16:05.207Z,73.10
2023-03-02T01:18:33.042Z,74.20
2023-03-02T01:21:05.937Z,77.10
2023-03-02T01:23:33.352Z,76.33
2023-03-02T01:26:01.682Z,73.33
2023-03-02T01:28:28.539Z,79.43
2023-03-02T01:30:55.393Z,78.90
2023-03-02T01:33:22.293Z,77.77
2023-03-02T01:35:49.529Z,79.23
2023-03-02T01:38:16.555Z,71.70
2023-03-02T01:40:43.627Z,75.03
2023-03-02T01:43:16.944Z,75.07
2023-03-02T01:45:57.460Z,83.70
2023-03-02T01:48:42.014Z,71.13
2023-03-02T01:51:15.833Z,78.67
2023-03-02T01:53:47.081Z,85.70
2023-03-02T01:56:17.397Z,79.43
2023-03-02T01:58:48.244Z,81.97
2023-03-02T02:01:15.705Z,77.90
2023-03-02T02:03:46.275Z,81.93
2023-03-02T02:06:28.800Z,81.53
2023-03-02T02:08:58.229Z,83.33
2023-03-02T02:11:25.840Z,71.77
2023-03-02T02:13:58.808Z,79.30
2023-03-02T02:16:28.793Z,84.17
2023-03-02T02:18:56.135Z,80.63
2023-03-02T02:21:24.677Z,76.30
2023-03-02T02:24:12.266Z,88.07
2023-03-02T02:26:43.833Z,80.83
2023-03-02T02:29:46.752Z,80.73
2023-03-02T02:32:26.449Z,77.90
2023-03-02T02:35:07.529Z,84.90
2023-03-02T02:37:58.379Z,85.83
2023-03-02T02:40:49.361Z,79.27
2023-03-02T02:43:19.694Z,78.67
2023-03-02T02:45:48.833Z,77.03
2023-03-02T02:48:18.778Z,81.60
2023-03-02T02:50:46.893Z,76.63
2023-03-02T02:53:19.323Z,90.60
2023-03-02T02:55:49.843Z,96.77
2023-03-02T02:58:25.140Z,89.00
2023-03-02T03:00:53.912Z,84.23
2023-03-02T03:03:35.533Z,78.57
2023-03-02T03:06:06.232Z,84.80
2023-03-02T03:08:45.670Z,82.93
2023-03-02T03:11:23.690Z,78.20
2023-03-02T03:14:02.323Z,83.43
2023-03-02T03:16:31.699Z,78.67
2023-03-02T03:19:19.337Z,82.47
2023-03-02T03:21:49.556Z,83.17
2023-03-02T03:24:17.400Z,91.33
2023-03-02T03:26:45.256Z,91.67
2023-03-02T03:29:13.140Z,84.50
2023-03-02T03:31:39.999Z,84.00
2023-03-02T03:34:07.645Z,92.30
2023-03-02T03:36:36.319Z,88.80
2023-03-02T03:39:05.760Z,87.10
2023-03-02T03:41:32.941Z,85.50
2023-03-02T03:44:00.183Z,84.67
2023-03-02T03:46:28.659Z,85.70
2023-03-02T03:48:57.327Z,85.60
2023-03-02T03:51:24.867Z,89.43
2023-03-02T03:54:02.279Z,94.07
2023-03-02T03:56:33.708Z,91.90
2023-03-02T03:59:07.108Z,82.17
2023-03-02T04:01:39.019Z,93.43
2023-03-02T04:04:10.893Z,107.43
2023-03-02T04:06:38.332Z,99.63
2023-03-02T04:09:07.577Z,102.90
2023-03-02T04:11:37.672Z,103.70
2023-03-02T04:14:05.363Z,105.87
2023-03-02T04:16:33.874Z,108.23
2023-03-02T04:19:01.907Z,101.13
2023-03-02T04:21:29.683Z,118.90
2023-03-02T04:23:57.627Z,103.53
2023-03-02T04:26:26.258Z,107.27
2023-03-02T04:28:53.234Z,114.23
2023-03-02T04:31:20.331Z,100.50
2023-03-02T04:33:47.333Z,113.73
2023-03-02T04:36:14.396Z,102.70
2023-03-02T04:38:41.483Z,98.67
2023-03-02T04:41:08.546Z,89.40
2023-03-02T04:43:36.477Z,95.43
2023-03-02T04:46:05.026Z,96.67
2023-03-02T04:48:32.171Z,98.20
2023-03-02T04:51:00.113Z,102.30
2023-03-02T04:53:27.185Z,95.33
2023-03-02T04:55:54.019Z,97.90
2023-03-02T04:58:20.830Z,92.67
2023-03-02T05:00:54.826Z,98.77
2023-03-02T05:03:21.648Z,98.10
2023-03-02T05:05:48.463Z,91.57
2023-03-02T05:08:15.290Z,94.43
2023-03-02T05:10:42.286Z,92.73
2023-03-02T05:13:09.194Z,98.67
2023-03-02T05:15:38.802Z,92.37
2023-03-02T05:18:08.172Z,83.63
2023-03-02T05:20:35.830Z,85.50
2023-03-02T05:23:06.310Z,82.90
2023-03-02T05:25:35.684Z,93.27
2023-03-02T05:28:03.191Z,83.57
2023-03-02T05:30:30.943Z,82.70
2023-03-02T05:32:58.469Z,68.93
2023-03-02T05:35:25.308Z,74.10
2023-03-02T05:37:52.627Z,71.80
2023-03-02T05:40:20.935Z,81.73
2023-03-02T05:42:48.675Z,70.10
2023-03-02T05:45:29.983Z,79.73
2023-03-02T05:47:57.106Z,71.13
2023-03-02T05:50:25.208Z,72.90
2023-03-02T05:52:52.237Z,77.30
2023-03-02T05:55:19.888Z,76.13
2023-03-02T05:57:49.350Z,78.83
2023-03-02T06:00:18.288Z,96.97
2023-03-02T06:02:45.473Z,95.37
2023-03-02T06:05:18.264Z,95.37
2023-03-02T06:07:45.851Z,96.63
2023-03-02T06:10:13.511Z,86.83
2023-03-02T06:12:40.982Z,85.00
2023-03-02T06:15:09.217Z,105.53
2023-03-02T06:17:36.431Z,106.37
2023-03-02T06:20:11.308Z,113.43
2023-03-02T06:22:46.098Z,109.10
2023-03-02T06:25:16.026Z,122.40
2023-03-02T06:27:44.382Z,127.43
2023-03-02T06:30:15.360Z,177.37
2023-03-02T06:32:42.694Z,179.67
2023-03-02T06:35:11.020Z,157.20
2023-03-02T06:37:37.970Z,111.57
2023-03-02T06:40:10.240Z,114.13
2023-03-02T06:42:38.647Z,136.00
2023-03-02T06:45:07.600Z,139.83
2023-03-02T06:47:35.002Z,110.40
2023-03-02T06:50:03.496Z,106.10
2023-03-02T06:52:31.435Z,119.40
2023-03-02T06:54:58.263Z,134.90
2023-03-02T06:57:25.073Z,123.70
2023-03-02T06:59:51.877Z,113.67
2023-03-02T07:02:18.666Z,101.93
2023-03-02T07:04:45.370Z,104.90
2023-03-02T07:07:12.280Z,139.80
2023-03-02T07:09:39.296Z,103.37
2023-03-02T07:12:06.285Z,88.57
2023-03-02T07:14:35.527Z,92.63
2023-03-02T07:17:04.856Z,95.10
2023-03-02T07:19:31.838Z,86.17
2023-03-02T07:21:58.600Z,93.57
2023-03-02T07:24:25.487Z,85.37
2023-03-02T07:26:52.274Z,81.80
2023-03-02T07:29:19.175Z,73.07
2023-03-02T07:31:45.978Z,85.47
2023-03-02T07:34:12.862Z,74.27
2023-03-02T07:36:39.663Z,75.70
2023-03-02T07:39:07.590Z,69.13
2023-03-02T07:41:35.424Z,71.97
2023-03-02T07:44:02.363Z,77.60
2023-03-02T07:46:29.140Z,64.30
2023-03-02T07:48:55.906Z,70.30
2023-03-02T07:51:22.939Z,66.93
2023-03-02T07:53:49.795Z,77.13
2023-03-02T07:56:16.787Z,108.90
2023-03-02T07:58:43.570Z,74.53
2023-03-02T08:01:11.591Z,66.70
2023-03-02T08:03:38.352Z,60.00
2023-03-02T08:06:07.840Z,60.37
2023-03-02T08:08:35.369Z,59.80
2023-03-02T08:11:20.196Z,58.07
2023-03-02T08:13:47.035Z,49.50
2023-03-02T08:16:15.511Z,60.47
2023-03-02T08:18:42.779Z,49.67
2023-03-02T08:21:17.993Z,53.70
2023-03-02T08:23:45.221Z,46.63
2023-03-02T08:26:14.809Z,45.73
2023-03-02T08:28:43.238Z,49.40
2023-03-02T08:31:10.790Z,44.37
2023-03-02T08:33:38.421Z,41.87
2023-03-02T08:36:08.282Z,90.93
2023-03-02T08:38:36.650Z,47.40
2023-03-02T08:41:06.788Z,42.50
2023-03-02T08:43:34.582Z,48.43
2023-03-02T08:46:03.683Z,48.27
2023-03-02T08:48:30.783Z,50.80
2023-03-02T08:51:02.895Z,55.03
2023-03-02T08:53:32.884Z,38.17
2023-03-02T08:55:59.748Z,41.73
2023-03-02T08:58:26.576Z,40.03
2023-03-02T09:00:53.483Z,40.60
2023-03-02T09:03:20.377Z,39.60
2023-03-02T09:05:47.247Z,37.73
2023-03-02T09:08:14.188Z,37.70
2023-03-02T09:10:41.015Z,35.63
2023-03-02T09:13:08.682Z,38.17
2023-03-02T09:15:35.960Z,37.30
2023-03-02T09:18:02.790Z,34.77
2023-03-02T09:20:29.750Z,35.47
2023-03-02T09:22:56.612Z,35.00
2023-03-02T09:25:23.504Z,33.57
2023-03-02T09:27:50.296Z,40.77
2023-03-02T09:30:17.553Z,32.63
2023-03-02T09:32:44.632Z,37.70
2023-03-02T09:35:11.664Z,33.67
2023-03-02T09:37:39.072Z,37.20
2023-03-02T09:40:17.573Z,34.57
2023-03-02T09:43:17.905Z,35.90
2023-03-02T09:46:29.561Z,31.57
2023-03-02T09:49:25.986Z,36.13
2023-03-02T09:51:58.430Z,35.63
2023-03-02T09:54:25.671Z,34.23
2023-03-02T09:56:57.770Z,30.37
2023-03-02T09:59:27.286Z,54.43
2023-03-02T10:01:56.556Z,32.30
2023-03-02T10:04:27.908Z,26.13
2023-03-02T10:07:14.969Z,26.87
2023-03-02T10:09:43.749Z,30.97
2023-03-02T10:12:25.324Z,31.07
2023-03-02T10:15:35.733Z,31.67
2023-03-02T10:18:12.880Z,27.20
2023-03-02T10:20:51.629Z,27.13
2023-03-02T10:23:37.403Z,32.60
2023-03-02T10:26:20.990Z,22.70
2023-03-02T10:28:50.003Z,24.63
2023-03-02T10:31:31.330Z,20.90
2023-03-02T10:33:59.272Z,20.33
2023-03-02T10:36:35.840Z,18.07
2023-03-02T10:39:06.861Z,22.57
2023-03-02T10:41:41.132Z,25.77
2023-03-02T10:44:29.632Z,25.10
2023-03-02T10:46:56.759Z,30.63
2023-03-02T10:49:41.540Z,26.10
2023-03-02T10:52:17.760Z,155.77
2023-03-02T10:54:44.562Z,24.77
2023-03-02T10:57:30.833Z,23.00
2023-03-02T11:00:14.157Z,21.93
2023-03-02T11:03:08.492Z,25.43
2023-03-02T11:05:38.420Z,27.37
2023-03-02T11:08:09.514Z,20.27
2023-03-02T11:10:50.476Z,19.30
2023-03-02T11:13:17.154Z,29.30
2023-03-02T11:15:46.419Z,30.90
2023-03-02T11:18:39.961Z,27.00
2023-03-02T11:21:46.712Z,22.37
2023-03-02T11:24:27.911Z,22.50
2023-03-02T11:27:06.104Z,31.90
2023-03-02T11:29:41.644Z,30.40
2023-03-02T11:32:08.450Z,38.70
2023-03-02T11:34:51.579Z,30.63
2023-03-02T11:37:28.025Z,23.33
2023-03-02T11:40:10.098Z,28.53
2023-03-02T11:42:40.941Z,31.97
2023-03-02T11:45:13.721Z,29.77
2023-03-02T11:47:51.495Z,27.20
2023-03-02T11:50:21.402Z,26.53
2023-03-02T11:52:59.580Z,26.13
2023-03-02T11:55:34.310Z,27.37
2023-03-02T11:58:04.157Z,30.70
2023-03-02T12:00:35.669Z,25.00
2023-03-02T12:03:23.828Z,28.37
2023-03-02T12:05:53.644Z,28.37
2023-03-02T12:08:20.348Z,28.57
2023-03-02T12:10:59.617Z,25.60
2023-03-02T12:13:40.101Z,27.67
2023-03-02T12:16:20.576Z,29.60
2023-03-02T12:18:49.033Z,29.93
2023-03-02T12:21:21.508Z,35.40
2023-03-02T12:23:51.502Z,49.00
2023-03-02T12:26:21.003Z,30.20
2023-03-02T12:29:02.712Z,34.97
2023-03-02T12:31:47.607Z,29.97
2023-03-02T12:34:36.801Z,35.90
2023-03-02T12:37:18.331Z,37.23
2023-03-02T12:40:06.767Z,36.93
2023-03-02T12:42:48.967Z,35.60
2023-03-02T12:45:31.189Z,33.83
2023-03-02T12:48:04.837Z,38.43
2023-03-02T12:50:37.645Z,42.17
2023-03-02T12:53:07.428Z,38.57
2023-03-02T12:55:34.611Z,37.27
2023-03-02T12:58:02.731Z,43.93
2023-03-02T13:00:32.798Z,50.40
2023-03-02T13:03:07.244Z,42.50
2023-03-02T13:05:35.975Z,40.80
2023-03-02T13:08:13.816Z,44.23
2023-03-02T13:10:42.024Z,46.73
2023-03-02T13:13:36.792Z,33.93
2023-03-02T13:16:06.561Z,32.10
2023-03-02T13:18:36.399Z,37.03
2023-03-02T13:21:04.472Z,31.90
2023-03-02T13:23:33.068Z,32.00
2023-03-02T13:26:02.581Z,37.00
2023-03-02T13:28:34.770Z,32.23
2023-03-02T13:31:06.057Z,39.73
2023-03-02T13:33:35.524Z,40.17
2023-03-02T13:36:03.012Z,40.20
2023-03-02T13:38:35.974Z,44.07
2023-03-02T13:41:04.049Z,40.27
2023-03-02T13:43:30.843Z,50.50
2023-03-02T13:46:06.724Z,49.70
2023-03-02T13:48:33.913Z,53.40
2023-03-02T13:51:14.845Z,52.00
2023-03-02T13:53:50.645Z,52.37
2023-03-02T13:56:18.812Z,52.43
2023-03-02T13:58:46.397Z,48.43
2023-03-02T14:01:14.012Z,61.27
2023-03-02T14:03:40.989Z,59.97
2023-03-02T14:06:08.065Z,58.17
2023-03-02T14:08:34.833Z,60.27
2023-03-02T14:11:03.756Z,63.77
2023-03-02T14:13:35.570Z,70.60
2023-03-02T14:16:02.392Z,63.67
2023-03-02T14:18:42.492Z,63.53
2023-03-02T14:21:18.501Z,65.37
2023-03-02T14:23:46.426Z,65.23
2023-03-02T14:26:34.399Z,63.63
2023-03-02T14:29:20.881Z,61.97
2023-03-02T14:31:47.745Z,65.57
2023-03-02T14:34:15.636Z,74.83
2023-03-02T14:36:45.133Z,77.83
2023-03-02T14:39:20.336Z,62.23
2023-03-02T14:41:53.397Z,86.87
2023-03-02T14:44:21.696Z,76.57
2023-03-02T14:46:48.720Z,68.57
2023-03-02T14:49:15.556Z,69.20
2023-03-02T14:51:44.796Z,68.70
2023-03-02T14:54:17.478Z,72.40
2023-03-02T14:56:44.733Z,76.83
2023-03-02T14:59:14.721Z,77.20
2023-03-02T15:01:44.667Z,71.63
2023-03-02T15:04:11.671Z,75.47
2023-03-02T15:06:41.159Z,79.97
2023-03-02T15:09:08.643Z,80.20
2023-03-02T15:11:35.952Z,86.10
2023-03-02T15:14:02.870Z,57.60
2023-03-02T15:16:29.685Z,50.87
2023-03-02T15:18:58.752Z,69.00
2023-03-02T15:21:26.797Z,76.27
2023-03-02T15:23:53.661Z,84.77
2023-03-02T15:26:20.415Z,79.03
2023-03-02T15:28:50.566Z,66.67
2023-03-02T15:31:18.110Z,60.27
2023-03-02T15:33:45.594Z,56.13
2023-03-02T15:36:13.339Z,57.17
2023-03-02T15:38:40.362Z,46.03
2023-03-02T15:41:10.509Z,43.67
2023-03-02T15:43:37.367Z,46.07
2023-03-02T15:46:05.795Z,46.77
2023-03-02T15:48:32.569Z,42.57
2023-03-02T15:51:00.585Z,41.93
2023-03-02T15:53:28.596Z,47.60
2023-03-02T15:55:55.813Z,40.60
2023-03-02T15:58:23.933Z,53.67
2023-03-02T16:00:53.556Z,45.90
2023-03-02T16:03:22.534Z,43.00
2023-03-02T16:05:49.550Z,45.23
2023-03-02T16:08:16.320Z,46.77
2023-03-02T16:10:43.257Z,48.43
2023-03-02T16:13:13.331Z,53.33
2023-03-02T16:15:41.445Z,47.07
2023-03-02T16:18:09.408Z,44.40
2023-03-02T16:20:37.360Z,43.57
2023-03-02T16:23:09.706Z,46.63
2023-03-02T16:25:39.987Z,47.10
2023-03-02T16:28:07.712Z,57.53
2023-03-02T16:30:35.290Z,54.37
2023-03-02T16:33:04.314Z,49.37
2023-03-02T16:35:32.862Z,50.13
2023-03-02T16:37:59.719Z,57.37
2023-03-02T16:40:26.520Z,54.63
2023-03-02T16:42:53.550Z,49.27
2023-03-02T16:45:21.074Z,71.00
2023-03-02T16:47:48.761Z,59.30
2023-03-02T16:50:17.063Z,57.07
2023-03-02T16:52:44.038Z,59.33
2023-03-02T16:55:17.339Z,44.53
2023-03-02T16:57:44.460Z,42.60
2023-03-02T17:00:14.737Z,45.53
2023-03-02T17:02:41.615Z,46.53
2023-03-02T17:05:09.191Z,45.93
2023-03-02T17:07:36.171Z,51.50
2023-03-02T17:10:03.816Z,309.07
2023-03-02T17:12:30.654Z,228.93
2023-03-02T17:14:57.457Z,141.90
2023-03-02T17:17:24.291Z,182.60
2023-03-02T17:19:51.063Z,128.47
2023-03-02T17:22:18.019Z,128.80
2023-03-02T17:24:44.792Z,131.43
2023-03-02T17:27:24.040Z,126.80
2023-03-02T17:29:52.352Z,117.70
2023-03-02T17:32:19.394Z,124.30
2023-03-02T17:34:46.784Z,139.30
2023-03-02T17:37:14.078Z,110.30
2023-03-02T17:39:41.151Z,113.90
2023-03-02T17:42:07.956Z,131.63
2023-03-02T17:44:37.630Z,107.63
2023-03-02T17:47:06.378Z,102.03
2023-03-02T17:49:33.265Z,97.43
2023-03-02T17:52:00.266Z,107.33
2023-03-02T17:54:27.140Z,87.57
2023-03-02T17:56:53.842Z,90.43
2023-03-02T17:59:20.581Z,113.30
2023-03-02T18:01:47.384Z,94.83
2023-03-02T18:04:14.291Z,92.70
2023-03-02T18:06:41.087Z,98.07
2023-03-02T18:09:07.976Z,77.73
2023-03-02T18:11:34.877Z,95.97
2023-03-02T18:14:02.163Z,84.93
2023-03-02T18:16:29.356Z,89.87
2023-03-02T18:18:57.512Z,96.13
2023-03-02T18:21:24.429Z,85.97
2023-03-02T18:23:51.302Z,86.23
2023-03-02T18:26:18.032Z,96.73
2023-03-02T18:28:44.800Z,91.07
2023-03-02T18:31:15.297Z,83.87
2023-03-02T18:33:42.210Z,90.77
2023-03-02T18:36:09.586Z,88.77
2023-03-02T18:38:37.230Z,90.47
2023-03-02T18:41:05.854Z,88.03
2023-03-02T18:43:34.870Z,88.90
2023-03-02T18:46:04.255Z,103.37
2023-03-02T18:48:31.502Z,110.40
2023-03-02T18:50:59.059Z,122.20
2023-03-02T18:53:26.879Z,125.43
2023-03-02T18:55:57.101Z,131.43
2023-03-02T18:58:25.128Z,142.73
2023-03-02T19:00:53.873Z,157.40
2023-03-02T19:03:20.825Z,134.10
2023-03-02T19:05:47.722Z,127.13
2023-03-02T19:08:14.678Z,137.93
2023-03-02T19:10:42.377Z,137.53
2023-03-02T19:13:11.721Z,138.83
2023-03-02T19:15:43.000Z,132.97
2023-03-02T19:18:14.218Z,128.37
2023-03-02T19:20:41.025Z,139.57
2023-03-02T19:23:07.890Z,131.93
2023-03-02T19:25:34.684Z,126.87
2023-03-02T19:28:01.509Z,134.23
2023-03-02T19:30:28.468Z,137.00
2023-03-02T19:32:55.375Z,143.87
2023-03-02T19:35:24.156Z,126.40
2023-03-02T19:37:51.469Z,131.37
2023-03-02T19:40:21.734Z,121.67
2023-03-02T19:42:49.602Z,118.57
2023-03-02T19:45:21.290Z,121.53
2023-03-02T19:47:48.412Z,128.37
2023-03-02T19:50:16.931Z,146.13
2023-03-02T19:52:43.889Z,191.13
2023-03-02T19:55:12.671Z,154.70
2023-03-02T19:57:41.158Z,163.53
2023-03-02T20:00:13.259Z,176.60
2023-03-02T20:02:40.884Z,194.43
2023-03-02T20:05:10.343Z,186.93
2023-03-02T20:07:39.779Z,170.17
2023-03-02T20:10:09.124Z,161.57
2023-03-02T20:12:36.932Z,245.43
2023-03-02T20:15:05.840Z,222.17
2023-03-02T20:17:33.863Z,203.73
2023-03-02T20:20:01.392Z,192.00
2023-03-02T20:22:28.356Z,174.73
2023-03-02T20:24:55.191Z,145.10
2023-03-02T20:27:21.993Z,158.83
2023-03-02T20:29:49.141Z,163.70
2023-03-02T20:32:15.976Z,148.77
2023-03-02T20:34:43.622Z,155.03
2023-03-02T20:37:13.984Z,139.27
2023-03-02T20:39:43.417Z,138.17
2023-03-02T20:42:12.361Z,146.77
2023-03-02T20:44:39.357Z,163.97
2023-03-02T20:47:11.421Z,173.53
2023-03-02T20:49:39.097Z,161.53
2023-03-02T20:52:08.266Z,167.50
2023-03-02T20:54:39.721Z,170.23
2023-03-02T20:57:08.654Z,162.63
2023-03-02T20:59:37.430Z,175.93
2023-03-02T21:02:05.494Z,181.40
2023-03-02T21:04:33.275Z,169.00
2023-03-02T21:07:00.116Z,158.00
2023-03-02T21:09:26.986Z,167.23
2023-03-02T21:11:54.879Z,155.97
2023-03-02T21:14:21.779Z,148.97
2023-03-02T21:16:48.641Z,143.43
2023-03-02T21:19:18.108Z,160.23
2023-03-02T21:21:45.010Z,156.40
2023-03-02T21:24:16.806Z,155.27
2023-03-02T21:26:48.389Z,145.87
2023-03-02T21:29:16.840Z,161.97
2023-03-02T21:31:44.208Z,151.43
2023-03-02T21:34:12.583Z,139.50
2023-03-02T21:36:39.519Z,136.87
2023-03-02T21:39:07.437Z,146.60
2023-03-02T21:41:38.234Z,149.80
2023-03-02T21:44:05.958Z,143.00
2023-03-02T21:46:34.446Z,156.70
2023-03-02T21:49:01.365Z,144.37
2023-03-02T21:51:28.231Z,141.27
2023-03-02T21:53:56.894Z,143.03
2023-03-02T21:56:28.703Z,150.77
2023-03-02T21:58:57.107Z,145.00
2023-03-02T22:01:25.934Z,152.10
2023-03-02T22:03:53.203Z,142.63
2023-03-02T22:06:25.959Z,130.17
2023-03-02T22:08:53.681Z,139.43
2023-03-02T22:11:29.583Z,141.27
2023-03-02T22:14:02.492Z,128.60
2023-03-02T22:16:38.740Z,144.13
2023-03-02T22:19:29.773Z,265.13
2023-03-02T22:22:00.343Z,431.83
2023-03-02T22:24:32.041Z,457.10
2023-03-02T22:27:26.914Z,433.03
2023-03-02T22:29:57.927Z,354.67
2023-03-02T22:32:27.747Z,355.83
2023-03-02T22:34:59.675Z,343.73
2023-03-02T22:37:33.956Z,408.10
2023-03-02T22:40:25.596Z,283.50
2023-03-02T22:43:05.117Z,283.43
2023-03-02T22:45:32.081Z,212.33
2023-03-02T22:47:59.736Z,223.17
2023-03-02T22:50:31.484Z,194.10
2023-03-02T22:53:02.403Z,184.20
2023-03-02T22:55:42.304Z,191.37
2023-03-02T22:58:25.114Z,195.73
2023-03-02T23:00:52.488Z,178.50
2023-03-02T23:03:22.330Z,195.77
2023-03-02T23:05:51.897Z,211.27
2023-03-02T23:08:36.895Z,197.00
2023-03-02T23:11:12.180Z,184.50
2023-03-02T23:13:40.134Z,165.93
2023-03-02T23:16:28.174Z,169.90
2023-03-02T23:18:59.198Z,163.17
2023-03-02T23:21:49.545Z,153.37
2023-03-02T23:24:19.118Z,165.77
2023-03-02T23:26:46.043Z,154.40
2023-03-02T23:29:12.860Z,141.97
2023-03-02T23:31:41.918Z,138.20
2023-03-02T23:34:20.671Z,145.43
2023-03-02T23:36:52.502Z,137.20
2023-03-02T23:39:19.416Z,140.33
2023-03-02T23:41:46.374Z,138.67
2023-03-02T23:44:13.201Z,128.20
2023-03-02T23:46:40.095Z,126.97
2023-03-02T23:49:06.984Z,129.03
2023-03-02T23:51:33.959Z,128.30
2023-03-02T23:54:02.393Z,138.17
2023-03-02T23:56:30.923Z,139.57
2023-03-02T23:59:04.273Z,126.43
